AAL929 KMIA-SBGR
Flight info
| Callsign | AAL929 |
|---|---|
| Flight time | N/A |
| Altitude | 37000 |
| Route | KLADA2 BITAC Y290 HAGIT Y421 HARBG L452 MUNOZ DCT ANADA UG449 PELMA/N0471F390 UG449 KORTO/N0473F380 DCT SUMVA/N0473F390 UP535 ETETI DCT SOBID DCT PAMEN UP535 MOMSO UZ24 MULUV/N0470F400 UZ38 VUNOX |
| Aircraft | A333/H-SDE3GHIJ2J3J5M1RVWXY/LB2D1 |
Departure
| Time | N/A |
|---|---|
| Airport | Miami International Airport (KMIA) |
Arrival
| Time | 2026-05-05 22:02 |
|---|---|
| Airport | São Paulo/Guarulhos–Governor André Franco Montoro International Airport (SBGR) |
| Time | Latitude | Longitude | Altitude | Speed | Heading |
|---|---|---|---|---|---|
| 2026-05-05 19:36 | -8.03903 | -52.43307 | 38922 ft | 471 kts | 153° |
| 2026-05-05 19:37 | -8.06790 | -52.41749 | 38923 ft | 471 kts | 153° |
| 2026-05-05 19:37 | -8.12568 | -52.38631 | 38929 ft | 471 kts | 154° |
| 2026-05-05 19:38 | -8.18297 | -52.35538 | 38930 ft | 470 kts | 154° |
| 2026-05-05 19:38 | -8.24065 | -52.32423 | 38927 ft | 470 kts | 154° |
| 2026-05-05 19:39 | -8.29833 | -52.29308 | 38930 ft | 470 kts | 154° |
| 2026-05-05 19:39 | -8.35596 | -52.26193 | 38930 ft | 470 kts | 154° |
| 2026-05-05 19:40 | -8.41358 | -52.23076 | 38935 ft | 469 kts | 154° |
| 2026-05-05 19:40 | -8.47117 | -52.19958 | 38933 ft | 470 kts | 154° |
| 2026-05-05 19:41 | -8.52877 | -52.16842 | 38937 ft | 470 kts | 154° |
| 2026-05-05 19:41 | -8.58636 | -52.13726 | 38936 ft | 470 kts | 154° |
| 2026-05-05 19:42 | -8.64395 | -52.10610 | 38933 ft | 470 kts | 154° |
| 2026-05-05 19:42 | -8.70159 | -52.07489 | 38938 ft | 470 kts | 154° |
| 2026-05-05 19:43 | -8.75916 | -52.04370 | 38934 ft | 470 kts | 154° |
| 2026-05-05 19:43 | -8.81637 | -52.01270 | 38933 ft | 470 kts | 154° |
| 2026-05-05 19:44 | -8.87400 | -51.98147 | 38934 ft | 470 kts | 154° |
| 2026-05-05 19:44 | -8.93158 | -51.95024 | 38936 ft | 470 kts | 154° |
| 2026-05-05 19:45 | -8.98916 | -51.91901 | 38940 ft | 470 kts | 154° |
| 2026-05-05 19:45 | -9.04670 | -51.88778 | 38938 ft | 469 kts | 154° |
| 2026-05-05 19:46 | -9.10425 | -51.85654 | 38936 ft | 469 kts | 154° |
| 2026-05-05 19:46 | -9.16184 | -51.82528 | 38935 ft | 469 kts | 154° |
| 2026-05-05 19:47 | -9.21930 | -51.79406 | 38944 ft | 469 kts | 154° |
| 2026-05-05 19:47 | -9.27686 | -51.76278 | 38941 ft | 469 kts | 154° |
| 2026-05-05 19:48 | -9.33439 | -51.73150 | 38945 ft | 469 kts | 154° |
| 2026-05-05 19:48 | -9.39187 | -51.70024 | 38950 ft | 469 kts | 154° |
| 2026-05-05 19:49 | -9.44904 | -51.66914 | 38949 ft | 469 kts | 154° |
| 2026-05-05 19:49 | -9.50653 | -51.63785 | 38953 ft | 469 kts | 154° |
| 2026-05-05 19:50 | -9.56406 | -51.60653 | 38950 ft | 469 kts | 155° |
| 2026-05-05 19:50 | -9.62159 | -51.57520 | 38953 ft | 469 kts | 154° |
| 2026-05-05 19:51 | -9.67907 | -51.54388 | 38951 ft | 469 kts | 155° |
| 2026-05-05 19:51 | -9.73655 | -51.51255 | 38953 ft | 469 kts | 154° |
| 2026-05-05 19:52 | -9.79405 | -51.48120 | 38957 ft | 469 kts | 155° |
| 2026-05-05 19:52 | -9.85157 | -51.44981 | 38953 ft | 470 kts | 155° |
| 2026-05-05 19:53 | -9.90913 | -51.41839 | 38954 ft | 470 kts | 155° |
| 2026-05-05 19:53 | -9.96666 | -51.38698 | 38953 ft | 470 kts | 155° |
| 2026-05-05 19:54 | -10.02420 | -51.35556 | 38959 ft | 470 kts | 155° |
| 2026-05-05 19:54 | -10.08170 | -51.32415 | 38958 ft | 469 kts | 155° |
| 2026-05-05 19:55 | -10.13911 | -51.29276 | 38949 ft | 469 kts | 155° |
| 2026-05-05 19:55 | -10.19653 | -51.26136 | 38955 ft | 469 kts | 155° |
| 2026-05-05 19:56 | -10.25390 | -51.22998 | 38949 ft | 468 kts | 155° |
| 2026-05-05 19:56 | -10.31089 | -51.19878 | 38964 ft | 469 kts | 154° |
| 2026-05-05 19:57 | -10.36824 | -51.16738 | 38963 ft | 468 kts | 154° |
| 2026-05-05 19:57 | -10.42551 | -51.13601 | 38961 ft | 468 kts | 154° |
| 2026-05-05 19:58 | -10.48278 | -51.10463 | 38962 ft | 468 kts | 154° |
| 2026-05-05 19:58 | -10.53985 | -51.07291 | 38966 ft | 468 kts | 153° |
| 2026-05-05 19:59 | -10.59638 | -51.04012 | 38965 ft | 468 kts | 153° |
| 2026-05-05 19:59 | -10.65273 | -51.00714 | 38966 ft | 467 kts | 153° |
| 2026-05-05 20:00 | -10.70912 | -50.97424 | 38965 ft | 467 kts | 153° |
| 2026-05-05 20:00 | -10.76548 | -50.94145 | 38964 ft | 467 kts | 153° |
| 2026-05-05 20:01 | -10.82188 | -50.90865 | 38968 ft | 467 kts | 153° |
| 2026-05-05 20:01 | -10.87827 | -50.87583 | 38961 ft | 467 kts | 153° |
| 2026-05-05 20:02 | -10.93431 | -50.84321 | 38959 ft | 467 kts | 153° |
| 2026-05-05 20:02 | -10.99073 | -50.81035 | 38966 ft | 467 kts | 153° |
| 2026-05-05 20:03 | -11.04714 | -50.77748 | 38966 ft | 467 kts | 153° |
| 2026-05-05 20:03 | -11.10357 | -50.74458 | 38970 ft | 467 kts | 153° |
| 2026-05-05 20:04 | -11.15998 | -50.71168 | 38968 ft | 468 kts | 153° |
| 2026-05-05 20:04 | -11.21646 | -50.67873 | 38963 ft | 468 kts | 153° |
| 2026-05-05 20:05 | -11.27291 | -50.64577 | 38965 ft | 468 kts | 153° |
| 2026-05-05 20:05 | -11.32936 | -50.61280 | 38964 ft | 468 kts | 153° |
| 2026-05-05 20:06 | -11.38588 | -50.57978 | 38967 ft | 468 kts | 153° |
| 2026-05-05 20:06 | -11.44241 | -50.54673 | 38963 ft | 469 kts | 153° |
| 2026-05-05 20:07 | -11.49900 | -50.51363 | 38966 ft | 469 kts | 153° |
| 2026-05-05 20:07 | -11.55515 | -50.48076 | 38969 ft | 469 kts | 153° |
| 2026-05-05 20:08 | -11.61171 | -50.44765 | 38968 ft | 469 kts | 153° |
| 2026-05-05 20:08 | -11.66823 | -50.41453 | 38971 ft | 468 kts | 153° |
| 2026-05-05 20:09 | -11.72472 | -50.38143 | 38960 ft | 468 kts | 153° |
| 2026-05-05 20:09 | -11.78117 | -50.34833 | 38971 ft | 468 kts | 153° |
| 2026-05-05 20:10 | -11.83759 | -50.31523 | 38967 ft | 468 kts | 153° |
| 2026-05-05 20:10 | -11.89403 | -50.28211 | 38967 ft | 468 kts | 153° |
| 2026-05-05 20:11 | -11.95044 | -50.24898 | 38969 ft | 468 kts | 153° |
| 2026-05-05 20:11 | -12.00690 | -50.21581 | 38978 ft | 468 kts | 153° |
| 2026-05-05 20:12 | -12.06332 | -50.18265 | 38980 ft | 468 kts | 153° |
| 2026-05-05 20:12 | -12.11968 | -50.14951 | 38977 ft | 467 kts | 153° |
| 2026-05-05 20:13 | -12.17599 | -50.11637 | 38975 ft | 466 kts | 153° |
| 2026-05-05 20:13 | -12.22271 | -50.08887 | 38979 ft | 466 kts | 153° |
| 2026-05-05 20:14 | -12.27886 | -50.05581 | 38980 ft | 466 kts | 153° |
| 2026-05-05 20:14 | -12.33504 | -50.02271 | 38973 ft | 466 kts | 153° |
| 2026-05-05 20:15 | -12.39115 | -49.98964 | 38988 ft | 466 kts | 153° |
| 2026-05-05 20:15 | -12.44723 | -49.95656 | 38982 ft | 464 kts | 153° |
| 2026-05-05 20:16 | -12.50318 | -49.92355 | 38976 ft | 464 kts | 153° |
| 2026-05-05 20:16 | -12.55907 | -49.89055 | 38992 ft | 464 kts | 153° |
| 2026-05-05 20:17 | -12.61499 | -49.85753 | 38977 ft | 464 kts | 153° |
| 2026-05-05 20:17 | -12.67093 | -49.82447 | 38978 ft | 464 kts | 154° |
| 2026-05-05 20:18 | -12.72692 | -49.79137 | 38983 ft | 465 kts | 154° |
| 2026-05-05 20:18 | -12.78299 | -49.75820 | 38994 ft | 465 kts | 154° |
| 2026-05-05 20:19 | -12.83864 | -49.72526 | 38981 ft | 465 kts | 154° |
| 2026-05-05 20:19 | -12.89470 | -49.69206 | 38990 ft | 465 kts | 154° |
| 2026-05-05 20:20 | -12.95080 | -49.65881 | 38985 ft | 466 kts | 154° |
| 2026-05-05 20:20 | -13.00710 | -49.62572 | 38985 ft | 467 kts | 154° |
| 2026-05-05 20:21 | -13.06352 | -49.59271 | 38982 ft | 467 kts | 154° |
| 2026-05-05 20:21 | -13.11991 | -49.55969 | 38983 ft | 467 kts | 154° |
| 2026-05-05 20:22 | -13.17627 | -49.52664 | 38984 ft | 467 kts | 155° |
| 2026-05-05 20:22 | -13.23262 | -49.49357 | 38984 ft | 466 kts | 155° |
| 2026-05-05 20:23 | -13.28889 | -49.46053 | 38987 ft | 466 kts | 155° |
| 2026-05-05 20:23 | -13.34513 | -49.42748 | 38992 ft | 466 kts | 155° |
| 2026-05-05 20:24 | -13.40141 | -49.39440 | 38999 ft | 466 kts | 155° |
| 2026-05-05 20:24 | -13.45769 | -49.36130 | 38995 ft | 466 kts | 155° |
| 2026-05-05 20:25 | -13.51352 | -49.32844 | 38991 ft | 466 kts | 155° |
| 2026-05-05 20:25 | -13.56971 | -49.29535 | 38998 ft | 465 kts | 155° |
| 2026-05-05 20:26 | -13.62587 | -49.26226 | 38996 ft | 465 kts | 155° |
| 2026-05-05 20:26 | -13.68194 | -49.22921 | 39001 ft | 465 kts | 155° |
| 2026-05-05 20:27 | -13.73805 | -49.19612 | 39008 ft | 465 kts | 155° |
| 2026-05-05 20:27 | -13.79414 | -49.16303 | 39009 ft | 465 kts | 155° |
| 2026-05-05 20:28 | -13.85010 | -49.12973 | 39013 ft | 465 kts | 155° |
| 2026-05-05 20:28 | -13.90595 | -49.09616 | 39013 ft | 464 kts | 155° |
| 2026-05-05 20:29 | -13.96168 | -49.06261 | 39022 ft | 464 kts | 155° |
| 2026-05-05 20:29 | -14.01735 | -49.02913 | 39021 ft | 463 kts | 155° |
| 2026-05-05 20:30 | -14.07303 | -48.99564 | 39024 ft | 463 kts | 155° |
| 2026-05-05 20:30 | -14.12831 | -48.96238 | 39032 ft | 463 kts | 155° |
| 2026-05-05 20:31 | -14.18381 | -48.92897 | 39024 ft | 461 kts | 155° |
| 2026-05-05 20:31 | -14.23917 | -48.89562 | 39027 ft | 461 kts | 155° |
| 2026-05-05 20:32 | -14.29449 | -48.86228 | 39024 ft | 461 kts | 155° |
| 2026-05-05 20:32 | -14.34983 | -48.82892 | 39027 ft | 461 kts | 155° |
| 2026-05-05 20:33 | -14.40519 | -48.79551 | 39034 ft | 461 kts | 155° |
| 2026-05-05 20:33 | -14.46053 | -48.76210 | 39035 ft | 461 kts | 155° |
| 2026-05-05 20:34 | -14.51585 | -48.72867 | 39045 ft | 461 kts | 155° |
| 2026-05-05 20:34 | -14.57120 | -48.69522 | 39047 ft | 461 kts | 155° |
| 2026-05-05 20:35 | -14.62615 | -48.66198 | 39051 ft | 460 kts | 155° |
| 2026-05-05 20:35 | -14.68130 | -48.62860 | 39050 ft | 459 kts | 155° |
| 2026-05-05 20:36 | -14.73642 | -48.59522 | 39056 ft | 459 kts | 155° |
| 2026-05-05 20:36 | -14.79153 | -48.56184 | 39064 ft | 459 kts | 155° |
| 2026-05-05 20:37 | -14.84661 | -48.52845 | 39069 ft | 459 kts | 155° |
| 2026-05-05 20:37 | -14.90170 | -48.49503 | 39066 ft | 459 kts | 155° |
| 2026-05-05 20:38 | -14.95668 | -48.46166 | 39068 ft | 459 kts | 155° |
| 2026-05-05 20:38 | -15.01171 | -48.42824 | 39073 ft | 458 kts | 155° |
| 2026-05-05 20:39 | -15.06671 | -48.39481 | 39087 ft | 458 kts | 155° |
| 2026-05-05 20:39 | -15.12166 | -48.36140 | 39077 ft | 458 kts | 155° |
| 2026-05-05 20:40 | -15.17652 | -48.32801 | 39075 ft | 457 kts | 155° |
| 2026-05-05 20:40 | -15.23102 | -48.29483 | 39083 ft | 457 kts | 155° |
| 2026-05-05 20:41 | -15.28585 | -48.26143 | 39090 ft | 457 kts | 155° |
| 2026-05-05 20:41 | -15.34067 | -48.22801 | 39088 ft | 456 kts | 155° |
| 2026-05-05 20:42 | -15.39533 | -48.19467 | 39094 ft | 455 kts | 155° |
| 2026-05-05 20:42 | -15.44990 | -48.16137 | 39105 ft | 455 kts | 155° |
| 2026-05-05 20:43 | -15.50445 | -48.12807 | 39108 ft | 455 kts | 155° |
| 2026-05-05 20:43 | -15.55896 | -48.09476 | 39119 ft | 454 kts | 156° |
| 2026-05-05 20:44 | -15.61333 | -48.06151 | 39153 ft | 453 kts | 156° |
| 2026-05-05 20:44 | -15.66762 | -48.02830 | 39191 ft | 453 kts | 156° |
| 2026-05-05 20:45 | -15.74907 | -47.97845 | 39243 ft | 453 kts | 156° |
| 2026-05-05 20:45 | -15.80332 | -47.94521 | 39265 ft | 452 kts | 156° |
| 2026-05-05 20:46 | -15.85746 | -47.91201 | 39264 ft | 452 kts | 156° |
| 2026-05-05 20:46 | -15.91121 | -47.87904 | 39265 ft | 452 kts | 156° |
| 2026-05-05 20:47 | -15.96533 | -47.84583 | 39253 ft | 452 kts | 156° |
| 2026-05-05 20:47 | -16.01942 | -47.81262 | 39223 ft | 451 kts | 156° |
| 2026-05-05 20:48 | -16.07337 | -47.77945 | 39139 ft | 450 kts | 156° |
| 2026-05-05 20:48 | -16.12730 | -47.74628 | 39135 ft | 450 kts | 156° |
| 2026-05-05 20:49 | -16.18115 | -47.71314 | 39131 ft | 450 kts | 156° |
| 2026-05-05 20:49 | -16.23502 | -47.67996 | 39137 ft | 450 kts | 157° |
| 2026-05-05 20:50 | -16.28879 | -47.64682 | 39132 ft | 449 kts | 157° |
| 2026-05-05 20:50 | -16.34253 | -47.61368 | 39134 ft | 449 kts | 157° |
| 2026-05-05 20:51 | -16.39625 | -47.58054 | 39139 ft | 449 kts | 157° |
| 2026-05-05 20:51 | -16.45131 | -47.55132 | 39151 ft | 439 kts | 166° |
| 2026-05-05 20:52 | -16.50797 | -47.52944 | 39142 ft | 436 kts | 167° |
| 2026-05-05 20:52 | -16.56530 | -47.50879 | 39143 ft | 436 kts | 168° |
| 2026-05-05 20:53 | -16.62263 | -47.48833 | 39141 ft | 435 kts | 168° |
| 2026-05-05 20:53 | -16.67991 | -47.46774 | 39145 ft | 435 kts | 168° |
| 2026-05-05 20:54 | -16.73719 | -47.44704 | 39130 ft | 436 kts | 168° |
| 2026-05-05 20:54 | -16.79445 | -47.42630 | 39144 ft | 436 kts | 168° |
| 2026-05-05 20:55 | -16.85171 | -47.40554 | 39152 ft | 436 kts | 168° |
| 2026-05-05 20:55 | -16.90899 | -47.38477 | 39156 ft | 436 kts | 168° |
| 2026-05-05 20:56 | -16.96622 | -47.36401 | 39144 ft | 435 kts | 168° |
| 2026-05-05 20:56 | -17.02298 | -47.34340 | 39144 ft | 435 kts | 168° |
| 2026-05-05 20:57 | -17.08013 | -47.32265 | 39144 ft | 435 kts | 168° |
| 2026-05-05 20:57 | -17.13727 | -47.30188 | 39150 ft | 435 kts | 168° |
| 2026-05-05 20:58 | -17.19434 | -47.28112 | 39150 ft | 434 kts | 168° |
| 2026-05-05 20:58 | -17.25132 | -47.26038 | 39143 ft | 433 kts | 168° |
| 2026-05-05 20:59 | -17.30827 | -47.23965 | 39146 ft | 433 kts | 168° |
| 2026-05-05 20:59 | -17.36525 | -47.21889 | 39141 ft | 433 kts | 168° |
| 2026-05-05 21:00 | -17.42216 | -47.19814 | 39151 ft | 433 kts | 168° |
| 2026-05-05 21:00 | -17.47893 | -47.17741 | 39149 ft | 432 kts | 168° |
| 2026-05-05 21:01 | -17.53569 | -47.15670 | 39143 ft | 432 kts | 168° |
| 2026-05-05 21:01 | -17.59256 | -47.13592 | 39142 ft | 433 kts | 168° |
| 2026-05-05 21:02 | -17.64937 | -47.11514 | 39144 ft | 432 kts | 168° |
| 2026-05-05 21:02 | -17.70608 | -47.09437 | 39141 ft | 432 kts | 168° |
| 2026-05-05 21:03 | -17.76242 | -47.07374 | 39141 ft | 431 kts | 168° |
| 2026-05-05 21:03 | -17.81913 | -47.05297 | 39136 ft | 431 kts | 168° |
| 2026-05-05 21:04 | -17.87577 | -47.03220 | 39149 ft | 431 kts | 168° |
| 2026-05-05 21:04 | -17.93231 | -47.01145 | 39141 ft | 430 kts | 168° |
| 2026-05-05 21:05 | -17.98870 | -46.99075 | 39144 ft | 429 kts | 168° |
| 2026-05-05 21:05 | -18.04514 | -46.97002 | 39152 ft | 430 kts | 168° |
| 2026-05-05 21:06 | -18.09209 | -46.95277 | 39162 ft | 430 kts | 168° |
| 2026-05-05 21:06 | -18.15800 | -46.92851 | 39151 ft | 429 kts | 168° |
| 2026-05-05 21:07 | -18.20481 | -46.91127 | 39148 ft | 429 kts | 167° |
| 2026-05-05 21:07 | -18.26114 | -46.89052 | 39159 ft | 429 kts | 168° |
| 2026-05-05 21:08 | -18.31739 | -46.86978 | 39170 ft | 428 kts | 168° |
| 2026-05-05 21:08 | -18.37348 | -46.84908 | 39158 ft | 426 kts | 168° |
| 2026-05-05 21:09 | -18.42946 | -46.82842 | 39177 ft | 426 kts | 168° |
| 2026-05-05 21:09 | -18.48540 | -46.80777 | 39167 ft | 426 kts | 168° |
| 2026-05-05 21:10 | -18.54128 | -46.78711 | 39184 ft | 426 kts | 168° |
| 2026-05-05 21:10 | -18.59716 | -46.76643 | 39178 ft | 425 kts | 168° |
| 2026-05-05 21:11 | -18.65285 | -46.74581 | 39176 ft | 424 kts | 168° |
| 2026-05-05 21:11 | -18.70816 | -46.72534 | 39181 ft | 424 kts | 168° |
| 2026-05-05 21:12 | -18.76386 | -46.70470 | 39193 ft | 424 kts | 168° |
| 2026-05-05 21:12 | -18.81950 | -46.68405 | 39183 ft | 423 kts | 168° |
| 2026-05-05 21:13 | -18.87499 | -46.66345 | 39184 ft | 423 kts | 168° |
| 2026-05-05 21:13 | -18.93053 | -46.64281 | 39183 ft | 423 kts | 167° |
| 2026-05-05 21:14 | -18.98582 | -46.62119 | 39187 ft | 424 kts | 166° |
| 2026-05-05 21:14 | -19.04097 | -46.59885 | 39184 ft | 424 kts | 166° |
| 2026-05-05 21:15 | -19.09613 | -46.57646 | 39183 ft | 425 kts | 166° |
| 2026-05-05 21:15 | -19.15135 | -46.55415 | 39189 ft | 425 kts | 166° |
| 2026-05-05 21:16 | -19.20633 | -46.53198 | 39190 ft | 426 kts | 166° |
| 2026-05-05 21:16 | -19.26165 | -46.50967 | 39187 ft | 425 kts | 166° |
| 2026-05-05 21:17 | -19.31689 | -46.48737 | 39193 ft | 425 kts | 166° |
| 2026-05-05 21:17 | -19.37214 | -46.46507 | 39194 ft | 425 kts | 166° |
| 2026-05-05 21:18 | -19.42734 | -46.44275 | 39210 ft | 425 kts | 166° |
| 2026-05-05 21:18 | -19.48258 | -46.42039 | 39201 ft | 425 kts | 166° |
| 2026-05-05 21:19 | -19.53778 | -46.39804 | 39201 ft | 425 kts | 166° |
| 2026-05-05 21:19 | -19.59295 | -46.37566 | 39201 ft | 425 kts | 166° |
| 2026-05-05 21:20 | -19.64814 | -46.35330 | 39213 ft | 425 kts | 166° |
| 2026-05-05 21:20 | -19.70349 | -46.33086 | 39202 ft | 426 kts | 166° |
| 2026-05-05 21:21 | -19.75893 | -46.30836 | 39202 ft | 426 kts | 166° |
| 2026-05-05 21:21 | -19.81432 | -46.28585 | 39198 ft | 426 kts | 166° |
| 2026-05-05 21:22 | -19.86973 | -46.26331 | 39215 ft | 427 kts | 166° |
| 2026-05-05 21:22 | -19.92483 | -46.24089 | 39192 ft | 427 kts | 166° |
| 2026-05-05 21:23 | -19.98033 | -46.21830 | 39195 ft | 427 kts | 166° |
| 2026-05-05 21:23 | -20.03583 | -46.19567 | 39192 ft | 427 kts | 166° |
| 2026-05-05 21:24 | -20.09134 | -46.17304 | 39193 ft | 427 kts | 165° |
| 2026-05-05 21:24 | -20.14691 | -46.15035 | 39184 ft | 429 kts | 165° |
| 2026-05-05 21:25 | -20.20270 | -46.12757 | 39184 ft | 430 kts | 165° |
| 2026-05-05 21:25 | -20.25851 | -46.10475 | 39184 ft | 429 kts | 165° |
| 2026-05-05 21:26 | -20.31428 | -46.08194 | 39182 ft | 430 kts | 165° |
| 2026-05-05 21:26 | -20.37014 | -46.05907 | 39179 ft | 430 kts | 165° |
| 2026-05-05 21:27 | -20.42600 | -46.03618 | 39181 ft | 430 kts | 165° |
| 2026-05-05 21:27 | -20.48185 | -46.01328 | 39182 ft | 430 kts | 165° |
| 2026-05-05 21:28 | -20.53773 | -45.99035 | 39186 ft | 430 kts | 165° |
| 2026-05-05 21:28 | -20.59366 | -45.96738 | 39187 ft | 430 kts | 165° |
| 2026-05-05 21:29 | -20.64961 | -45.94439 | 39183 ft | 432 kts | 165° |
| 2026-05-05 21:29 | -20.70572 | -45.92132 | 39189 ft | 432 kts | 165° |
| 2026-05-05 21:30 | -20.76145 | -45.89835 | 39190 ft | 433 kts | 165° |
| 2026-05-05 21:30 | -20.81768 | -45.87526 | 39189 ft | 432 kts | 166° |
| 2026-05-05 21:31 | -20.87543 | -45.86171 | 39176 ft | 421 kts | 180° |
| 2026-05-05 21:31 | -20.93307 | -45.86600 | 39190 ft | 414 kts | 193° |
| 2026-05-05 21:32 | -20.98932 | -45.87892 | 39185 ft | 414 kts | 195° |
| 2026-05-05 21:32 | -21.04534 | -45.89336 | 39196 ft | 414 kts | 196° |
| 2026-05-05 21:33 | -21.10136 | -45.90772 | 39195 ft | 414 kts | 196° |
| 2026-05-05 21:33 | -21.15744 | -45.92183 | 39189 ft | 414 kts | 195° |
| 2026-05-05 21:34 | -21.21356 | -45.93582 | 39181 ft | 414 kts | 195° |
| 2026-05-05 21:34 | -21.26967 | -45.94980 | 39191 ft | 414 kts | 195° |
| 2026-05-05 21:35 | -21.32585 | -45.96382 | 39195 ft | 414 kts | 195° |
| 2026-05-05 21:35 | -21.38197 | -45.97784 | 39068 ft | 413 kts | 195° |
| 2026-05-05 21:36 | -21.40992 | -45.98483 | 38833 ft | 412 kts | 195° |
| 2026-05-05 21:36 | -21.43779 | -45.99179 | 38569 ft | 412 kts | 195° |
| 2026-05-05 21:36 | -21.46579 | -45.99880 | 38305 ft | 413 kts | 195° |
| 2026-05-05 21:36 | -21.49384 | -46.00583 | 38046 ft | 415 kts | 195° |
| 2026-05-05 21:37 | -21.52168 | -46.01279 | 37776 ft | 418 kts | 195° |
| 2026-05-05 21:37 | -21.55003 | -46.01988 | 37521 ft | 419 kts | 195° |
| 2026-05-05 21:37 | -21.57846 | -46.02699 | 37263 ft | 420 kts | 195° |
| 2026-05-05 21:37 | -21.60700 | -46.03414 | 37000 ft | 422 kts | 196° |
| 2026-05-05 21:38 | -21.63561 | -46.04131 | 36712 ft | 421 kts | 196° |
| 2026-05-05 21:38 | -21.66410 | -46.04844 | 36181 ft | 420 kts | 195° |
| 2026-05-05 21:38 | -21.69265 | -46.05561 | 35513 ft | 423 kts | 195° |
| 2026-05-05 21:38 | -21.72145 | -46.06285 | 34806 ft | 427 kts | 196° |
| 2026-05-05 21:39 | -21.75057 | -46.07016 | 34062 ft | 431 kts | 196° |
| 2026-05-05 21:39 | -21.77995 | -46.07755 | 33252 ft | 435 kts | 195° |
| 2026-05-05 21:39 | -21.80950 | -46.08498 | 32476 ft | 438 kts | 195° |
| 2026-05-05 21:39 | -21.83926 | -46.09246 | 31677 ft | 441 kts | 195° |
| 2026-05-05 21:40 | -21.86924 | -46.10000 | 30904 ft | 444 kts | 195° |
| 2026-05-05 21:40 | -21.89922 | -46.10755 | 30396 ft | 440 kts | 195° |
| 2026-05-05 21:40 | -21.92892 | -46.11502 | 29787 ft | 437 kts | 194° |
| 2026-05-05 21:40 | -21.95844 | -46.12245 | 29223 ft | 433 kts | 194° |
| 2026-05-05 21:41 | -21.98764 | -46.12981 | 28667 ft | 429 kts | 194° |
| 2026-05-05 21:41 | -22.01658 | -46.13710 | 28135 ft | 426 kts | 194° |
| 2026-05-05 21:41 | -22.04534 | -46.14435 | 27576 ft | 422 kts | 194° |
| 2026-05-05 21:41 | -22.07381 | -46.15153 | 27046 ft | 419 kts | 194° |
| 2026-05-05 21:42 | -22.10216 | -46.15869 | 26503 ft | 417 kts | 194° |
| 2026-05-05 21:42 | -22.12996 | -46.16571 | 25960 ft | 415 kts | 194° |
| 2026-05-05 21:42 | -22.15800 | -46.17280 | 25412 ft | 413 kts | 194° |
| 2026-05-05 21:42 | -22.18592 | -46.17986 | 24853 ft | 412 kts | 194° |
| 2026-05-05 21:43 | -22.21376 | -46.18690 | 24316 ft | 410 kts | 193° |
| 2026-05-05 21:43 | -22.24153 | -46.19392 | 23763 ft | 410 kts | 193° |
| 2026-05-05 21:43 | -22.26925 | -46.20094 | 23146 ft | 408 kts | 193° |
| 2026-05-05 21:43 | -22.29678 | -46.20791 | 22593 ft | 405 kts | 193° |
| 2026-05-05 21:44 | -22.32435 | -46.21405 | 22018 ft | 404 kts | 189° |
| 2026-05-05 21:44 | -22.35228 | -46.21871 | 21537 ft | 408 kts | 188° |
| 2026-05-05 21:44 | -22.38043 | -46.22307 | 21059 ft | 409 kts | 188° |
| 2026-05-05 21:44 | -22.40848 | -46.22737 | 20586 ft | 406 kts | 188° |
| 2026-05-05 21:45 | -22.43640 | -46.23166 | 20107 ft | 404 kts | 188° |
| 2026-05-05 21:45 | -22.46413 | -46.23594 | 19632 ft | 401 kts | 188° |
| 2026-05-05 21:45 | -22.49167 | -46.24020 | 19164 ft | 399 kts | 188° |
| 2026-05-05 21:45 | -22.51911 | -46.24445 | 18701 ft | 397 kts | 188° |
| 2026-05-05 21:46 | -22.54642 | -46.24868 | 18192 ft | 396 kts | 188° |
| 2026-05-05 21:46 | -22.57358 | -46.25290 | 17823 ft | 393 kts | 188° |
| 2026-05-05 21:46 | -22.60054 | -46.25709 | 17505 ft | 391 kts | 188° |
| 2026-05-05 21:46 | -22.62740 | -46.26126 | 17159 ft | 388 kts | 187° |
| 2026-05-05 21:47 | -22.65405 | -46.26541 | 16836 ft | 387 kts | 187° |
| 2026-05-05 21:47 | -22.68067 | -46.26954 | 16488 ft | 385 kts | 187° |
| 2026-05-05 21:47 | -22.70710 | -46.27366 | 16176 ft | 383 kts | 187° |
| 2026-05-05 21:47 | -22.73346 | -46.27776 | 15844 ft | 382 kts | 187° |
| 2026-05-05 21:48 | -22.75966 | -46.28186 | 15514 ft | 380 kts | 188° |
| 2026-05-05 21:48 | -22.78522 | -46.28859 | 15182 ft | 380 kts | 200° |
| 2026-05-05 21:48 | -22.80895 | -46.30109 | 14848 ft | 379 kts | 207° |
| 2026-05-05 21:48 | -22.83183 | -46.31516 | 14505 ft | 378 kts | 209° |
| 2026-05-05 21:49 | -22.85457 | -46.32943 | 14185 ft | 377 kts | 209° |
| 2026-05-05 21:49 | -22.87718 | -46.34360 | 13841 ft | 375 kts | 209° |
| 2026-05-05 21:49 | -22.89975 | -46.35770 | 13500 ft | 374 kts | 209° |
| 2026-05-05 21:49 | -22.92225 | -46.37171 | 13188 ft | 372 kts | 209° |
| 2026-05-05 21:50 | -22.94465 | -46.38563 | 12876 ft | 369 kts | 209° |
| 2026-05-05 21:50 | -22.96688 | -46.39945 | 12545 ft | 367 kts | 209° |
| 2026-05-05 21:50 | -22.98901 | -46.41320 | 12222 ft | 366 kts | 209° |
| 2026-05-05 21:50 | -23.01108 | -46.42692 | 11900 ft | 365 kts | 209° |
| 2026-05-05 21:51 | -23.03304 | -46.44057 | 11590 ft | 363 kts | 209° |
| 2026-05-05 21:51 | -23.05434 | -46.45381 | 11371 ft | 351 kts | 209° |
| 2026-05-05 21:51 | -23.07515 | -46.46676 | 11129 ft | 340 kts | 209° |
| 2026-05-05 21:51 | -23.09538 | -46.47935 | 10845 ft | 331 kts | 208° |
| 2026-05-05 21:52 | -23.13444 | -46.50366 | 10203 ft | 318 kts | 208° |
| 2026-05-05 21:52 | -23.15334 | -46.51543 | 10017 ft | 308 kts | 208° |
| 2026-05-05 21:52 | -23.17164 | -46.52683 | 9787 ft | 299 kts | 208° |
| 2026-05-05 21:53 | -23.18967 | -46.53804 | 9361 ft | 299 kts | 208° |
| 2026-05-05 21:53 | -23.20754 | -46.54942 | 8983 ft | 296 kts | 210° |
| 2026-05-05 21:53 | -23.22492 | -46.56140 | 8593 ft | 295 kts | 211° |
| 2026-05-05 21:53 | -23.24194 | -46.57345 | 8314 ft | 290 kts | 212° |
| 2026-05-05 21:54 | -23.25875 | -46.58542 | 8072 ft | 288 kts | 212° |
| 2026-05-05 21:54 | -23.27549 | -46.59732 | 7824 ft | 287 kts | 212° |
| 2026-05-05 21:54 | -23.29217 | -46.60917 | 7566 ft | 286 kts | 212° |
| 2026-05-05 21:54 | -23.30880 | -46.62098 | 7309 ft | 285 kts | 212° |
| 2026-05-05 21:55 | -23.32533 | -46.63274 | 7045 ft | 283 kts | 212° |
| 2026-05-05 21:55 | -23.34176 | -46.64442 | 6800 ft | 282 kts | 212° |
| 2026-05-05 21:55 | -23.35814 | -46.65606 | 6557 ft | 279 kts | 212° |
| 2026-05-05 21:55 | -23.37413 | -46.66742 | 6414 ft | 270 kts | 211° |
| 2026-05-05 21:56 | -23.38955 | -46.67837 | 6288 ft | 259 kts | 211° |
| 2026-05-05 21:56 | -23.40526 | -46.68659 | 6185 ft | 243 kts | 195° |
| 2026-05-05 21:56 | -23.42137 | -46.68811 | 6016 ft | 230 kts | 171° |
| 2026-05-05 21:56 | -23.43608 | -46.68274 | 5968 ft | 214 kts | 149° |
| 2026-05-05 21:57 | -23.44696 | -46.67290 | 5875 ft | 201 kts | 130° |
| 2026-05-05 21:57 | -23.45509 | -46.66108 | 5784 ft | 189 kts | 124° |
| 2026-05-05 21:57 | -23.46220 | -46.64955 | 5632 ft | 177 kts | 123° |
| 2026-05-05 21:57 | -23.46869 | -46.63859 | 5457 ft | 168 kts | 119° |
| 2026-05-05 21:58 | -23.47274 | -46.62673 | 5148 ft | 169 kts | 99° |
| 2026-05-05 21:58 | -23.47258 | -46.61407 | 4911 ft | 164 kts | 81° |
| 2026-05-05 21:58 | -23.47002 | -46.60265 | 4764 ft | 148 kts | 76° |
| 2026-05-05 21:58 | -23.46723 | -46.59223 | 4527 ft | 140 kts | 76° |
| 2026-05-05 21:59 | -23.46541 | -46.58553 | 4349 ft | 139 kts | 75° |
| 2026-05-05 21:59 | -23.46268 | -46.57539 | 4103 ft | 140 kts | 76° |
| 2026-05-05 21:59 | -23.45998 | -46.56524 | 3909 ft | 140 kts | 76° |
| 2026-05-05 21:59 | -23.45723 | -46.55506 | 3764 ft | 140 kts | 77° |
| 2026-05-05 22:00 | -23.45447 | -46.54483 | 3575 ft | 141 kts | 76° |
| 2026-05-05 22:00 | -23.45169 | -46.53466 | 3395 ft | 140 kts | 75° |
| 2026-05-05 22:00 | -23.44892 | -46.52447 | 3196 ft | 140 kts | 76° |
| 2026-05-05 22:00 | -23.44612 | -46.51439 | 3069 ft | 140 kts | 75° |
| 2026-05-05 22:01 | -23.44350 | -46.50421 | 2842 ft | 137 kts | 74° |
| 2026-05-05 22:01 | -23.44083 | -46.49436 | 2630 ft | 135 kts | 73° |
| 2026-05-05 22:01 | -23.43817 | -46.48464 | 2479 ft | 132 kts | 73° |
| 2026-05-05 22:01 | -23.43589 | -46.47615 | 2471 ft | 93 kts | 73° |
| 2026-05-05 22:02 | -23.43462 | -46.47146 | 2472 ft | 38 kts | 74° |
| 2026-05-05 22:02 | -23.43352 | -46.46919 | 2471 ft | 33 kts | 48° |
| 2026-05-05 22:02 | -23.43231 | -46.46793 | 2472 ft | 17 kts | 43° |
| 2026-05-05 22:02 | -23.43191 | -46.46752 | 2472 ft | 0 kts | 43° |
| 2026-05-05 22:03 | -23.43150 | -46.46721 | 2473 ft | 12 kts | 25° |
| 2026-05-05 22:03 | -23.43071 | -46.46725 | 2472 ft | 12 kts | 347° |
| 2026-05-05 22:03 | -23.42991 | -46.46749 | 2471 ft | 13 kts | 343° |
| 2026-05-05 22:03 | -23.42900 | -46.46778 | 2472 ft | 14 kts | 343° |
| 2026-05-05 22:04 | -23.42822 | -46.46804 | 2471 ft | 12 kts | 342° |
| 2026-05-05 22:04 | -23.42776 | -46.46868 | 2465 ft | 12 kts | 267° |
| 2026-05-05 22:04 | -23.42796 | -46.46956 | 2469 ft | 13 kts | 254° |
| 2026-05-05 22:04 | -23.42823 | -46.47051 | 2470 ft | 14 kts | 252° |
| 2026-05-05 22:05 | -23.42825 | -46.47119 | 2468 ft | 8 kts | 302° |
| 2026-05-05 22:05 | -23.42776 | -46.47143 | 2472 ft | 8 kts | 341° |
| 2026-05-05 22:05 | -23.42717 | -46.47162 | 2470 ft | 9 kts | 346° |
| 2026-05-05 22:05 | -23.42651 | -46.47183 | 2470 ft | 11 kts | 343° |
| 2026-05-05 22:06 | -23.42576 | -46.47208 | 2470 ft | 12 kts | 343° |
| 2026-05-05 22:06 | -23.42508 | -46.47229 | 2470 ft | 5 kts | 344° |
| 2026-05-05 22:06 | -23.42483 | -46.47251 | 2469 ft | 4 kts | 292° |
| 2026-05-05 22:06 | -23.42487 | -46.47277 | 2467 ft | 4 kts | 260° |
| 2026-05-05 22:07 | -23.42495 | -46.47311 | 2470 ft | 4 kts | 254° |
| 2026-05-05 22:07 | -23.42500 | -46.47332 | 2469 ft | 2 kts | 255° |
| 2026-05-05 22:07 | -23.42504 | -46.47346 | 2468 ft | 1 kts | 255° |
| 2026-05-05 22:07 | -23.42504 | -46.47347 | 2465 ft | 0 kts | 255° |